Campo Alegre, Brazil
Current Conditions -  °F | °C
As of 11:00 PM on Thursday 18 Dec 2014 (Local Time) from SBJV Reporting Station
Light Rain Light Rain  
Wind Chill: 75°   Ceiling: 1800
Heat Index: 75°   Visibility: 6mi
Dew Point: 72°   Wind: 7mph
Humidity: 89%   Direction: 140°SE
Pressure: 29.88"   Gusts: NA
Location:  26.19°S, 49.27°W
Report Text: SBJV 190100Z 14006KT 9000 -RA BKN018 BKN025 24/22 Q1012
Loading
Personal Weather Stations






























Interactive Weather Map New forecast layout! Learn more

10-Day Weather Forecast

Advertisements
Track Severe Weather on mobile